Terminal Aerodrome Forecast
Issued by NWS

Home | Current Version | Previous Version | Text Only | Print | Product List | Glossary On
Versions: 1 2 3 4 5 6 7 8 9 10 11 12 13 14 15
000
FTUS42 KMLB 292332
TAFISM
TAF
KISM 292332Z 3000/3024 07011KT P6SM SKC
     FM300200 05004KT P6SM SKC
     FM301400 27006KT P6SM FEW050 SCT250
      AMD NOT SKED 3003/3012=

USA.gov is the U.S. government's official web portal to all federal, state and local government web resources and services.